sensor_id;sensor_type;location;lat;lon;timestamp;pressure;altitude;pressure_sealevel;temperature;humidity
12207;BME280;6166;42.806;23.408;2022-09-12T00:00:25;72169.97;;;-144.35;100.00
12207;BME280;6166;42.806;23.408;2022-09-12T00:02:52;72176.19;;;-144.35;100.00
12207;BME280;6166;42.806;23.408;2022-09-12T00:05:18;72192.69;;;-144.35;100.00
12207;BME280;6166;42.806;23.408;2022-09-12T00:07:45;72229.88;;;-144.35;100.00
12207;BME280;6166;42.806;23.408;2022-09-12T00:10:11;72227.81;;;-144.35;100.00
12207;BME280;6166;42.806;23.408;2022-09-12T00:12:38;72225.72;;;-144.35;100.00
12207;BME280;6166;42.806;23.408;2022-09-12T00:15:05;72223.66;;;-144.35;100.00
12207;BME280;6166;42.806;23.408;2022-09-12T00:17:34;72225.72;;;-144.35;100.00
12207;BME280;6166;42.806;23.408;2022-09-12T00:20:01;72227.81;;;-144.35;100.00
12207;BME280;6166;42.806;23.408;2022-09-12T00:22:28;72229.88;;;-144.35;99.88
12207;BME280;6166;42.806;23.408;2022-09-12T00:24:54;72229.88;;;-144.35;99.43
12207;BME280;6166;42.806;23.408;2022-09-12T00:27:20;72236.06;;;-144.35;99.72
12207;BME280;6166;42.806;23.408;2022-09-12T00:29:47;72240.19;;;-144.35;99.19
12207;BME280;6166;42.806;23.408;2022-09-12T00:32:13;72250.50;;;-144.35;99.27
12207;BME280;6166;42.806;23.408;2022-09-12T00:34:41;72298.00;;;-144.35;100.00
12207;BME280;6166;42.806;23.408;2022-09-12T00:37:08;72308.34;;;-144.35;100.00
12207;BME280;6166;42.806;23.408;2022-09-12T00:39:34;72300.06;;;-144.35;100.00
12207;BME280;6166;42.806;23.408;2022-09-12T00:42:01;72298.00;;;-144.35;100.00
12207;BME280;6166;42.806;23.408;2022-09-12T00:44:47;72293.88;;;-144.35;100.00
12207;BME280;6166;42.806;23.408;2022-09-12T00:47:24;72295.94;;;-144.35;99.90
12207;BME280;6166;42.806;23.408;2022-09-12T00:49:58;72295.94;;;-144.35;99.52
12207;BME280;6166;42.806;23.408;2022-09-12T00:52:28;72312.47;;;-144.35;100.00
12207;BME280;6166;42.806;23.408;2022-09-12T00:54:57;72318.66;;;-144.35;100.00
12207;BME280;6166;42.806;23.408;2022-09-12T00:57:25;72316.59;;;-144.35;100.00
12207;BME280;6166;42.806;23.408;2022-09-12T00:59:54;72308.34;;;-144.35;100.00
12207;BME280;6166;42.806;23.408;2022-09-12T01:02:22;72316.59;;;-144.35;99.92
12207;BME280;6166;42.806;23.408;2022-09-12T01:04:48;72324.84;;;-144.35;99.90
12207;BME280;6166;42.806;23.408;2022-09-12T01:07:17;72328.97;;;-144.35;99.57
12207;BME280;6166;42.806;23.408;2022-09-12T01:09:44;72324.84;;;-144.35;99.19
12207;BME280;6166;42.806;23.408;2022-09-12T01:12:11;72331.06;;;-144.35;98.99
12207;BME280;6166;42.806;23.408;2022-09-12T01:14:38;72335.19;;;-144.35;98.94
12207;BME280;6166;42.806;23.408;2022-09-12T01:17:13;72343.44;;;-144.35;99.18
12207;BME280;6166;42.806;23.408;2022-09-12T01:20:20;72341.38;;;-144.35;99.26
12207;BME280;6166;42.806;23.408;2022-09-12T01:26:08;72378.53;;;-144.35;100.00
12207;BME280;6166;42.806;23.408;2022-09-12T01:28:49;72372.34;;;-144.35;100.00
12207;BME280;6166;42.806;23.408;2022-09-12T01:31:20;72372.34;;;-144.35;100.00
12207;BME280;6166;42.806;23.408;2022-09-12T01:33:52;72374.41;;;-144.35;100.00
12207;BME280;6166;42.806;23.408;2022-09-12T01:36:31;72374.41;;;-144.35;100.00
12207;BME280;6166;42.806;23.408;2022-09-12T01:39:02;72370.28;;;-144.35;100.00
12207;BME280;6166;42.806;23.408;2022-09-12T01:41:30;72380.63;;;-144.35;100.00
12207;BME280;6166;42.806;23.408;2022-09-12T01:44:02;72423.97;;;-144.35;100.00
12207;BME280;6166;42.806;23.408;2022-09-12T01:46:32;72399.19;;;-144.35;100.00
12207;BME280;6166;42.806;23.408;2022-09-12T01:49:01;72386.81;;;-144.35;100.00
12207;BME280;6166;42.806;23.408;2022-09-12T01:51:37;72390.94;;;-144.35;100.00
12207;BME280;6166;42.806;23.408;2022-09-12T01:54:05;72378.53;;;-144.35;100.00
12207;BME280;6166;42.806;23.408;2022-09-12T01:56:34;72378.53;;;-144.35;100.00
12207;BME280;6166;42.806;23.408;2022-09-12T01:59:04;72374.41;;;-144.35;100.00
12207;BME280;6166;42.806;23.408;2022-09-12T02:01:35;72372.34;;;-144.35;100.00
12207;BME280;6166;42.806;23.408;2022-09-12T02:04:04;72374.41;;;-144.35;100.00
12207;BME280;6166;42.806;23.408;2022-09-12T02:06:34;72362.03;;;-144.35;100.00
12207;BME280;6166;42.806;23.408;2022-09-12T02:09:03;72362.03;;;-144.35;100.00
12207;BME280;6166;42.806;23.408;2022-09-12T02:11:32;72366.16;;;-144.35;100.00
12207;BME280;6166;42.806;23.408;2022-09-12T02:14:00;72353.78;;;-144.35;100.00
12207;BME280;6166;42.806;23.408;2022-09-12T02:16:28;72349.63;;;-144.35;100.00
12207;BME280;6166;42.806;23.408;2022-09-12T02:18:58;72349.63;;;-144.35;100.00
12207;BME280;6166;42.806;23.408;2022-09-12T02:21:30;72353.78;;;-144.35;100.00
12207;BME280;6166;42.806;23.408;2022-09-12T02:23:58;72353.78;;;-144.35;100.00
12207;BME280;6166;42.806;23.408;2022-09-12T02:26:30;72357.91;;;-144.35;100.00
12207;BME280;6166;42.806;23.408;2022-09-12T02:28:59;72353.78;;;-144.35;100.00
12207;BME280;6166;42.806;23.408;2022-09-12T02:31:26;72357.91;;;-144.35;100.00
12207;BME280;6166;42.806;23.408;2022-09-12T02:33:56;72359.97;;;-144.35;100.00
12207;BME280;6166;42.806;23.408;2022-09-12T02:36:29;72362.03;;;-144.35;100.00
12207;BME280;6166;42.806;23.408;2022-09-12T02:38:58;72362.03;;;-144.35;100.00
12207;BME280;6166;42.806;23.408;2022-09-12T02:41:25;72362.03;;;-144.35;100.00
12207;BME280;6166;42.806;23.408;2022-09-12T02:43:52;72366.16;;;-144.35;100.00
12207;BME280;6166;42.806;23.408;2022-09-12T02:46:20;72372.34;;;-144.35;100.00
12207;BME280;6166;42.806;23.408;2022-09-12T02:48:47;72376.47;;;-144.35;100.00
12207;BME280;6166;42.806;23.408;2022-09-12T02:51:14;72390.94;;;-144.35;100.00
12207;BME280;6166;42.806;23.408;2022-09-12T02:53:41;72399.19;;;-144.35;100.00
12207;BME280;6166;42.806;23.408;2022-09-12T02:56:10;72403.31;;;-144.35;100.00
12207;BME280;6166;42.806;23.408;2022-09-12T02:58:37;72415.72;;;-144.35;100.00
12207;BME280;6166;42.806;23.408;2022-09-12T03:01:06;72428.09;;;-144.35;100.00
12207;BME280;6166;42.806;23.408;2022-09-12T03:03:42;72506.59;;;-144.35;100.00
12207;BME280;6166;42.806;23.408;2022-09-12T03:06:17;72523.09;;;-144.35;100.00
12207;BME280;6166;42.806;23.408;2022-09-12T03:08:54;72527.25;;;-144.35;100.00
12207;BME280;6166;42.806;23.408;2022-09-12T03:11:28;72531.38;;;-144.35;100.00
12207;BME280;6166;42.806;23.408;2022-09-12T03:13:59;72514.84;;;-144.35;100.00
12207;BME280;6166;42.806;23.408;2022-09-12T03:16:32;72498.31;;;-144.35;100.00
12207;BME280;6166;42.806;23.408;2022-09-12T03:19:02;72508.66;;;-144.35;100.00
12207;BME280;6166;42.806;23.408;2022-09-12T03:21:32;72498.31;;;-144.35;100.00
12207;BME280;6166;42.806;23.408;2022-09-12T03:24:10;72494.19;;;-144.35;100.00
12207;BME280;6166;42.806;23.408;2022-09-12T03:26:40;72492.13;;;-144.35;100.00
12207;BME280;6166;42.806;23.408;2022-09-12T03:29:08;72508.66;;;-144.35;100.00
12207;BME280;6166;42.806;23.408;2022-09-12T03:31:36;72494.19;;;-144.35;100.00
12207;BME280;6166;42.806;23.408;2022-09-12T03:34:12;72485.94;;;-144.35;100.00
12207;BME280;6166;42.806;23.408;2022-09-12T03:36:39;72469.41;;;-144.35;100.00
12207;BME280;6166;42.806;23.408;2022-09-12T03:39:06;72465.28;;;-144.35;100.00
12207;BME280;6166;42.806;23.408;2022-09-12T03:41:34;72463.22;;;-144.35;100.00
12207;BME280;6166;42.806;23.408;2022-09-12T03:44:00;72467.34;;;-144.35;100.00
12207;BME280;6166;42.806;23.408;2022-09-12T03:46:27;72467.34;;;-144.35;100.00
12207;BME280;6166;42.806;23.408;2022-09-12T03:48:56;72465.28;;;-144.35;100.00
12207;BME280;6166;42.806;23.408;2022-09-12T03:51:28;72461.16;;;-144.35;100.00
12207;BME280;6166;42.806;23.408;2022-09-12T03:53:55;72446.69;;;-144.35;100.00
12207;BME280;6166;42.806;23.408;2022-09-12T03:56:21;72461.16;;;-144.35;100.00
12207;BME280;6166;42.806;23.408;2022-09-12T03:58:49;72461.16;;;-144.35;100.00
12207;BME280;6166;42.806;23.408;2022-09-12T04:01:16;72485.94;;;-144.35;100.00
12207;BME280;6166;42.806;23.408;2022-09-12T04:03:44;72490.06;;;-144.35;99.68
12207;BME280;6166;42.806;23.408;2022-09-12T04:06:11;72510.72;;;-144.35;99.89
12207;BME280;6166;42.806;23.408;2022-09-12T04:08:38;72508.66;;;-144.35;99.15
12207;BME280;6166;42.806;23.408;2022-09-12T04:11:06;72514.84;;;-144.35;98.30
12207;BME280;6166;42.806;23.408;2022-09-12T04:13:33;72531.38;;;-144.35;98.05
12207;BME280;6166;42.806;23.408;2022-09-12T04:16:01;72539.63;;;-144.35;98.20
12207;BME280;6166;42.806;23.408;2022-09-12T04:21:12;72543.75;;;-144.35;97.92
12207;BME280;6166;42.806;23.408;2022-09-12T04:23:38;72547.88;;;-144.35;98.29
12207;BME280;6166;42.806;23.408;2022-09-12T04:26:05;72539.63;;;-144.35;97.78
12207;BME280;6166;42.806;23.408;2022-09-12T04:28:32;72552.03;;;-144.35;97.52
12207;BME280;6166;42.806;23.408;2022-09-12T04:31:01;72549.94;;;-144.35;97.95
12207;BME280;6166;42.806;23.408;2022-09-12T04:33:29;72545.81;;;-144.35;97.84
12207;BME280;6166;42.806;23.408;2022-09-12T04:35:55;72547.88;;;-144.35;97.94
12207;BME280;6166;42.806;23.408;2022-09-12T04:38:22;72552.03;;;-144.35;97.97
12207;BME280;6166;42.806;23.408;2022-09-12T04:40:48;72547.88;;;-144.35;98.05
12207;BME280;6166;42.806;23.408;2022-09-12T04:43:15;72556.16;;;-144.35;98.27
12207;BME280;6166;42.806;23.408;2022-09-12T04:45:41;72547.88;;;-144.35;98.76
12207;BME280;6166;42.806;23.408;2022-09-12T04:48:09;72539.63;;;-144.35;98.57
12207;BME280;6166;42.806;23.408;2022-09-12T04:50:36;72531.38;;;-144.35;97.94
12207;BME280;6166;42.806;23.408;2022-09-12T04:53:02;72533.44;;;-144.35;98.08
12207;BME280;6166;42.806;23.408;2022-09-12T04:55:29;72518.97;;;-144.35;98.43
12207;BME280;6166;42.806;23.408;2022-09-12T04:57:55;72514.84;;;-144.35;98.45
12207;BME280;6166;42.806;23.408;2022-09-12T05:00:22;72508.66;;;-144.35;98.06
12207;BME280;6166;42.806;23.408;2022-09-12T05:02:49;72510.72;;;-144.35;97.46
12207;BME280;6166;42.806;23.408;2022-09-12T05:05:17;72498.31;;;-144.35;97.29
12207;BME280;6166;42.806;23.408;2022-09-12T05:07:43;72502.44;;;-144.35;97.55
12207;BME280;6166;42.806;23.408;2022-09-12T05:10:10;72498.31;;;-144.35;97.34
12207;BME280;6166;42.806;23.408;2022-09-12T05:12:36;72490.06;;;-144.35;97.11
12207;BME280;6166;42.806;23.408;2022-09-12T05:15:03;72481.81;;;-144.35;97.86
12207;BME280;6166;42.806;23.408;2022-09-12T05:17:30;72490.06;;;-144.35;99.14
12207;BME280;6166;42.806;23.408;2022-09-12T05:19:56;72473.53;;;-144.35;99.94
12207;BME280;6166;42.806;23.408;2022-09-12T05:22:24;72471.47;;;-144.35;100.00
12207;BME280;6166;42.806;23.408;2022-09-12T05:24:51;72502.44;;;-144.35;100.00
12207;BME280;6166;42.806;23.408;2022-09-12T05:27:24;72521.03;;;-144.35;100.00
12207;BME280;6166;42.806;23.408;2022-09-12T05:29:51;72506.59;;;-144.35;100.00
12207;BME280;6166;42.806;23.408;2022-09-12T05:32:17;72473.53;;;-144.35;100.00
12207;BME280;6166;42.806;23.408;2022-09-12T05:34:44;72500.38;;;-144.35;100.00
12207;BME280;6166;42.806;23.408;2022-09-12T05:37:11;72523.09;;;-144.35;100.00
12207;BME280;6166;42.806;23.408;2022-09-12T05:39:39;72508.66;;;-144.35;100.00
12207;BME280;6166;42.806;23.408;2022-09-12T05:42:05;72508.66;;;-144.35;100.00
12207;BME280;6166;42.806;23.408;2022-09-12T05:44:33;72494.19;;;-144.35;100.00
12207;BME280;6166;42.806;23.408;2022-09-12T05:46:59;72454.97;;;-144.35;100.00
12207;BME280;6166;42.806;23.408;2022-09-12T05:52:17;72399.19;;;-144.35;100.00
12207;BME280;6166;42.806;23.408;2022-09-12T05:54:46;72353.78;;;-144.35;100.00
12207;BME280;6166;42.806;23.408;2022-09-12T05:57:13;72390.94;;;-144.35;98.49
12207;BME280;6166;42.806;23.408;2022-09-12T05:59:39;72407.47;;;-144.35;100.00
12207;BME280;6166;42.806;23.408;2022-09-12T06:02:07;72362.03;;;-144.35;100.00
12207;BME280;6166;42.806;23.408;2022-09-12T06:04:34;72405.41;;;-144.35;98.81
12207;BME280;6166;42.806;23.408;2022-09-12T06:07:01;72390.94;;;-144.35;99.59
12207;BME280;6166;42.806;23.408;2022-09-12T06:09:27;72399.19;;;-144.35;100.00
12207;BME280;6166;42.806;23.408;2022-09-12T06:11:55;72426.03;;;-144.35;100.00
12207;BME280;6166;42.806;23.408;2022-09-12T06:14:21;72465.28;;;-144.35;100.00
12207;BME280;6166;42.806;23.408;2022-09-12T06:16:48;72438.44;;;-144.35;100.00
12207;BME280;6166;42.806;23.408;2022-09-12T06:19:15;72457.03;;;-144.35;100.00
12207;BME280;6166;42.806;23.408;2022-09-12T06:21:42;72430.19;;;-144.35;100.00
12207;BME280;6166;42.806;23.408;2022-09-12T06:24:09;72378.53;;;-144.35;100.00
12207;BME280;6166;42.806;23.408;2022-09-12T06:26:36;72368.22;;;-144.35;100.00
12207;BME280;6166;42.806;23.408;2022-09-12T06:29:03;72337.25;;;-144.35;98.86
12207;BME280;6166;42.806;23.408;2022-09-12T06:31:30;72308.34;;;-144.35;97.23
12207;BME280;6166;42.806;23.408;2022-09-12T06:33:58;72267.03;;;-144.35;97.46
12207;BME280;6166;42.806;23.408;2022-09-12T06:36:40;72234.00;;;-144.35;95.26
12207;BME280;6166;42.806;23.408;2022-09-12T06:39:08;72167.91;;;-144.35;94.04
12207;BME280;6166;42.806;23.408;2022-09-12T06:41:35;72221.59;;;-144.35;91.14
12207;BME280;6166;42.806;23.408;2022-09-12T06:44:03;72178.25;;;-144.35;94.37
12207;BME280;6166;42.806;23.408;2022-09-12T06:46:32;72180.31;;;-144.35;92.71
12207;BME280;6166;42.806;23.408;2022-09-12T06:48:59;72205.09;;;-144.35;93.04
12207;BME280;6166;42.806;23.408;2022-09-12T06:51:26;72194.75;;;-144.35;93.27
12207;BME280;6166;42.806;23.408;2022-09-12T06:53:53;72192.69;;;-144.35;90.81
12207;BME280;6166;42.806;23.408;2022-09-12T06:56:21;72207.16;;;-144.35;91.75
12207;BME280;6166;42.806;23.408;2022-09-12T06:58:48;72213.34;;;-144.35;91.52
12207;BME280;6166;42.806;23.408;2022-09-12T07:01:17;72242.25;;;-144.35;92.04
12207;BME280;6166;42.806;23.408;2022-09-12T07:03:45;72217.47;;;-144.35;92.06
12207;BME280;6166;42.806;23.408;2022-09-12T07:06:13;72184.44;;;-144.35;90.52
12207;BME280;6166;42.806;23.408;2022-09-12T07:08:40;72159.66;;;-144.35;87.55
12207;BME280;6166;42.806;23.408;2022-09-12T07:11:08;72151.41;;;-144.35;88.42
12207;BME280;6166;42.806;23.408;2022-09-12T07:13:34;72118.34;;;-144.35;86.16
12207;BME280;6166;42.806;23.408;2022-09-12T07:16:01;72062.59;;;-144.35;84.50
12207;BME280;6166;42.806;23.408;2022-09-12T07:18:29;72077.06;;;-144.35;83.54
12207;BME280;6166;42.806;23.408;2022-09-12T07:20:58;72097.72;;;-144.35;82.97
12207;BME280;6166;42.806;23.408;2022-09-12T07:23:24;72095.63;;;-144.35;84.77
12207;BME280;6166;42.806;23.408;2022-09-12T07:25:51;72116.28;;;-144.35;81.34
12207;BME280;6166;42.806;23.408;2022-09-12T07:28:17;72075.00;;;-144.35;82.52
12207;BME280;6166;42.806;23.408;2022-09-12T07:30:44;72068.81;;;-144.35;79.96
12207;BME280;6166;42.806;23.408;2022-09-12T07:33:10;72085.31;;;-144.35;78.84
12207;BME280;6166;42.806;23.408;2022-09-12T07:35:38;72091.50;;;-144.35;78.63
12207;BME280;6166;42.806;23.408;2022-09-12T07:38:05;72110.09;;;-144.35;79.23
12207;BME280;6166;42.806;23.408;2022-09-12T07:40:31;72126.63;;;-144.35;78.34
12207;BME280;6166;42.806;23.408;2022-09-12T07:42:58;72136.94;;;-144.35;79.79
12207;BME280;6166;42.806;23.408;2022-09-12T07:45:24;72147.25;;;-144.35;80.01
12207;BME280;6166;42.806;23.408;2022-09-12T07:47:52;72134.88;;;-144.35;78.73
12207;BME280;6166;42.806;23.408;2022-09-12T07:50:18;72167.91;;;-144.35;80.12
12207;BME280;6166;42.806;23.408;2022-09-12T07:52:46;72143.13;;;-144.35;80.78
12207;BME280;6166;42.806;23.408;2022-09-12T07:55:13;72136.94;;;-144.35;80.54
12207;BME280;6166;42.806;23.408;2022-09-12T07:57:39;72151.41;;;-144.35;79.72
12207;BME280;6166;42.806;23.408;2022-09-12T08:00:06;72143.13;;;-144.35;79.67
12207;BME280;6166;42.806;23.408;2022-09-12T08:02:35;72122.47;;;-144.35;80.39
12207;BME280;6166;42.806;23.408;2022-09-12T08:05:01;72105.97;;;-144.35;79.13
12207;BME280;6166;42.806;23.408;2022-09-12T08:07:29;72114.22;;;-144.35;79.11
12207;BME280;6166;42.806;23.408;2022-09-12T08:09:57;72108.03;;;-144.35;78.41
12207;BME280;6166;42.806;23.408;2022-09-12T08:12:24;72087.38;;;-144.35;78.41
12207;BME280;6166;42.806;23.408;2022-09-12T08:14:51;72089.44;;;-144.35;77.86
12207;BME280;6166;42.806;23.408;2022-09-12T08:17:17;72075.00;;;-144.35;77.86
12207;BME280;6166;42.806;23.408;2022-09-12T08:19:44;72075.00;;;-144.35;76.68
12207;BME280;6166;42.806;23.408;2022-09-12T08:22:10;72066.72;;;-144.35;75.56
12207;BME280;6166;42.806;23.408;2022-09-12T08:24:37;72044.03;;;-144.35;76.59
12207;BME280;6166;42.806;23.408;2022-09-12T08:27:06;72015.09;;;-144.35;74.26
12207;BME280;6166;42.806;23.408;2022-09-12T08:29:32;71977.94;;;-144.35;73.04
12207;BME280;6166;42.806;23.408;2022-09-12T08:31:59;71980.00;;;-144.35;73.94
12207;BME280;6166;42.806;23.408;2022-09-12T08:34:25;71928.38;;;-144.35;73.09
12207;BME280;6166;42.806;23.408;2022-09-12T08:36:52;71849.94;;;-144.35;72.98
12207;BME280;6166;42.806;23.408;2022-09-12T08:39:19;71827.22;;;-144.35;70.04
12207;BME280;6166;42.806;23.408;2022-09-12T08:41:46;71878.84;;;-144.35;69.07
12207;BME280;6166;42.806;23.408;2022-09-12T08:44:25;71852.00;;;-144.35;70.79
12207;BME280;6166;42.806;23.408;2022-09-12T08:47:01;71916.00;;;-144.35;68.19
12207;BME280;6166;42.806;23.408;2022-09-12T08:49:32;71940.78;;;-144.35;70.23
12207;BME280;6166;42.806;23.408;2022-09-12T08:52:01;71953.16;;;-144.35;70.55
12207;BME280;6166;42.806;23.408;2022-09-12T08:54:30;71977.94;;;-144.35;71.16
12207;BME280;6166;42.806;23.408;2022-09-12T08:57:00;72002.72;;;-144.35;72.25
12207;BME280;6166;42.806;23.408;2022-09-12T08:59:28;72025.44;;;-144.35;71.33
12207;BME280;6166;42.806;23.408;2022-09-12T09:01:57;72015.09;;;-144.35;72.06
12207;BME280;6166;42.806;23.408;2022-09-12T09:04:31;72010.97;;;-144.35;71.82
12207;BME280;6166;42.806;23.408;2022-09-12T09:07:05;71986.19;;;-144.35;72.18
12207;BME280;6166;42.806;23.408;2022-09-12T09:09:36;71982.06;;;-144.35;72.15
12207;BME280;6166;42.806;23.408;2022-09-12T09:12:06;71977.94;;;-144.35;72.06
12207;BME280;6166;42.806;23.408;2022-09-12T09:14:44;71959.34;;;-144.35;71.53
12207;BME280;6166;42.806;23.408;2022-09-12T09:17:18;71953.16;;;-144.35;71.59
12207;BME280;6166;42.806;23.408;2022-09-12T09:19:47;71949.03;;;-144.35;68.67
12207;BME280;6166;42.806;23.408;2022-09-12T09:22:17;71940.78;;;-144.35;68.99
12207;BME280;6166;42.806;23.408;2022-09-12T09:24:49;71930.44;;;-144.35;68.92
12207;BME280;6166;42.806;23.408;2022-09-12T09:27:21;71957.28;;;-144.35;68.43
12207;BME280;6166;42.806;23.408;2022-09-12T09:29:53;71959.34;;;-144.35;68.27
12207;BME280;6166;42.806;23.408;2022-09-12T09:32:26;71936.66;;;-144.35;68.06
12207;BME280;6166;42.806;23.408;2022-09-12T09:35:00;71903.59;;;-144.35;65.68
12207;BME280;6166;42.806;23.408;2022-09-12T09:37:29;71893.28;;;-144.35;64.58
12207;BME280;6166;42.806;23.408;2022-09-12T09:39:59;71891.22;;;-144.35;66.61
12207;BME280;6166;42.806;23.408;2022-09-12T09:42:29;71891.22;;;-144.35;65.43
12207;BME280;6166;42.806;23.408;2022-09-12T09:45:02;71895.34;;;-144.35;66.50
12207;BME280;6166;42.806;23.408;2022-09-12T09:47:29;71895.34;;;-144.35;64.42
12207;BME280;6166;42.806;23.408;2022-09-12T09:49:55;71889.16;;;-144.35;65.17
12207;BME280;6166;42.806;23.408;2022-09-12T09:52:23;71920.13;;;-144.35;66.04
12207;BME280;6166;42.806;23.408;2022-09-12T09:54:52;71940.78;;;-144.35;65.96
12207;BME280;6166;42.806;23.408;2022-09-12T10:00:27;71957.28;;;-144.35;68.55
12207;BME280;6166;42.806;23.408;2022-09-12T10:05:43;71928.38;;;-144.35;68.55
12207;BME280;6166;42.806;23.408;2022-09-12T10:08:10;71903.59;;;-144.35;66.97
12207;BME280;6166;42.806;23.408;2022-09-12T10:10:51;71858.19;;;-144.35;65.71
12207;BME280;6166;42.806;23.408;2022-09-12T10:13:21;71787.97;;;-144.35;63.47
12207;BME280;6166;42.806;23.408;2022-09-12T10:15:56;71821.03;;;-144.35;62.45
12207;BME280;6166;42.806;23.408;2022-09-12T10:18:33;71835.47;;;-144.35;61.47
12207;BME280;6166;42.806;23.408;2022-09-12T10:21:00;71862.31;;;-144.35;60.23
12207;BME280;6166;42.806;23.408;2022-09-12T10:23:29;71849.94;;;-144.35;60.91
12207;BME280;6166;42.806;23.408;2022-09-12T10:25:59;71794.19;;;-144.35;59.28
12207;BME280;6166;42.806;23.408;2022-09-12T10:28:30;71742.56;;;-144.35;57.75
12207;BME280;6166;42.806;23.408;2022-09-12T10:30:58;71775.59;;;-144.35;59.58
12207;BME280;6166;42.806;23.408;2022-09-12T10:33:26;71742.56;;;-144.35;59.96
12207;BME280;6166;42.806;23.408;2022-09-12T10:35:54;71767.34;;;-144.35;60.16
12207;BME280;6166;42.806;23.408;2022-09-12T10:38:22;71761.13;;;-144.35;61.77
12207;BME280;6166;42.806;23.408;2022-09-12T10:40:54;71792.13;;;-144.35;59.53
12207;BME280;6166;42.806;23.408;2022-09-12T10:43:24;71794.19;;;-144.35;58.84
12207;BME280;6166;42.806;23.408;2022-09-12T10:45:51;71763.22;;;-144.35;58.88
12207;BME280;6166;42.806;23.408;2022-09-12T10:48:25;71754.94;;;-144.35;57.28
12207;BME280;6166;42.806;23.408;2022-09-12T10:50:52;71734.28;;;-144.35;56.77
12207;BME280;6166;42.806;23.408;2022-09-12T10:53:20;71752.88;;;-144.35;58.61
12207;BME280;6166;42.806;23.408;2022-09-12T10:55:52;71777.66;;;-144.35;60.00
12207;BME280;6166;42.806;23.408;2022-09-12T10:58:26;71787.97;;;-144.35;60.90
12207;BME280;6166;42.806;23.408;2022-09-12T11:00:57;71823.09;;;-144.35;60.46
12207;BME280;6166;42.806;23.408;2022-09-12T11:03:32;71825.16;;;-144.35;61.08
12207;BME280;6166;42.806;23.408;2022-09-12T11:06:06;71837.53;;;-144.35;61.72
12207;BME280;6166;42.806;23.408;2022-09-12T11:08:44;71816.88;;;-144.35;61.28
12207;BME280;6166;42.806;23.408;2022-09-12T11:11:17;71841.66;;;-144.35;63.41
12207;BME280;6166;42.806;23.408;2022-09-12T11:13:52;71730.16;;;-144.35;59.33
12207;BME280;6166;42.806;23.408;2022-09-12T11:16:26;71682.69;;;-144.35;59.49
12207;BME280;6166;42.806;23.408;2022-09-12T11:19:01;71643.44;;;-144.35;56.85
12207;BME280;6166;42.806;23.408;2022-09-12T11:21:38;71676.50;;;-144.35;57.67
12207;BME280;6166;42.806;23.408;2022-09-12T11:26:59;71664.09;;;-144.35;52.19
12207;BME280;6166;42.806;23.408;2022-09-12T11:29:44;71641.38;;;-144.35;54.00
12207;BME280;6166;42.806;23.408;2022-09-12T11:32:18;71695.06;;;-144.35;53.22
12207;BME280;6166;42.806;23.408;2022-09-12T11:34:53;71721.91;;;-144.35;53.46
12207;BME280;6166;42.806;23.408;2022-09-12T11:37:30;71693.00;;;-144.35;53.83
12207;BME280;6166;42.806;23.408;2022-09-12T11:40:04;71705.41;;;-144.35;51.88
12207;BME280;6166;42.806;23.408;2022-09-12T11:42:35;71684.75;;;-144.35;50.84
12207;BME280;6166;42.806;23.408;2022-09-12T11:45:08;71732.22;;;-144.35;51.71
12207;BME280;6166;42.806;23.408;2022-09-12T11:47:38;71726.03;;;-144.35;52.52
12207;BME280;6166;42.806;23.408;2022-09-12T11:50:12;71705.41;;;-144.35;51.70
12207;BME280;6166;42.806;23.408;2022-09-12T11:52:40;71705.41;;;-144.35;51.04
12207;BME280;6166;42.806;23.408;2022-09-12T11:55:09;71717.78;;;-144.35;49.20
12207;BME280;6166;42.806;23.408;2022-09-12T11:57:38;71657.91;;;-144.35;49.80
12207;BME280;6166;42.806;23.408;2022-09-12T12:00:09;71610.41;;;-144.35;46.29
12207;BME280;6166;42.806;23.408;2022-09-12T12:02:42;71651.72;;;-144.35;46.41
12207;BME280;6166;42.806;23.408;2022-09-12T12:05:17;71717.78;;;-144.35;47.80
12207;BME280;6166;42.806;23.408;2022-09-12T12:07:49;71713.66;;;-144.35;51.45
12207;BME280;6166;42.806;23.408;2022-09-12T12:10:28;71647.59;;;-144.35;48.53
12207;BME280;6166;42.806;23.408;2022-09-12T12:12:57;71622.81;;;-144.35;49.32
12207;BME280;6166;42.806;23.408;2022-09-12T12:15:26;71616.63;;;-144.35;46.39
12207;BME280;6166;42.806;23.408;2022-09-12T12:17:59;71647.59;;;-144.35;46.67
12207;BME280;6166;42.806;23.408;2022-09-12T12:20:27;71676.50;;;-144.35;45.93
12207;BME280;6166;42.806;23.408;2022-09-12T12:22:54;71695.06;;;-144.35;45.07
12207;BME280;6166;42.806;23.408;2022-09-12T12:25:22;71709.53;;;-144.35;44.66
12207;BME280;6166;42.806;23.408;2022-09-12T12:27:52;71688.88;;;-144.35;45.81
12207;BME280;6166;42.806;23.408;2022-09-12T12:33:14;71610.41;;;-144.35;43.86
12207;BME280;6166;42.806;23.408;2022-09-12T12:36:02;71598.03;;;-144.35;43.22
12207;BME280;6166;42.806;23.408;2022-09-12T12:38:30;71639.31;;;-144.35;43.74
12207;BME280;6166;42.806;23.408;2022-09-12T12:43:38;71581.50;;;-144.35;46.74
12207;BME280;6166;42.806;23.408;2022-09-12T12:46:08;71618.69;;;-144.35;45.63
12207;BME280;6166;42.806;23.408;2022-09-12T12:48:46;71565.00;;;-144.35;46.76
12207;BME280;6166;42.806;23.408;2022-09-12T12:51:30;71631.06;;;-144.35;46.04
12207;BME280;6166;42.806;23.408;2022-09-12T12:53:58;71585.66;;;-144.35;46.51
12207;BME280;6166;42.806;23.408;2022-09-12T12:56:26;71598.03;;;-144.35;47.51
12207;BME280;6166;42.806;23.408;2022-09-12T12:58:57;71581.50;;;-144.35;47.01
12207;BME280;6166;42.806;23.408;2022-09-12T13:01:25;71569.13;;;-144.35;49.88
12207;BME280;6166;42.806;23.408;2022-09-12T13:03:53;71631.06;;;-144.35;45.56
12207;BME280;6166;42.806;23.408;2022-09-12T13:06:23;71616.63;;;-144.35;45.91
12207;BME280;6166;42.806;23.408;2022-09-12T13:08:56;71664.09;;;-144.35;47.10